createdAt,value
2022-10-04T00:02:34.132Z,13.80
2022-10-04T00:05:08.689Z,15.90
2022-10-04T00:07:45.725Z,16.93
2022-10-04T00:10:21.682Z,14.40
2022-10-04T00:12:56.115Z,12.10
2022-10-04T00:15:29.757Z,13.63
2022-10-04T00:18:18.636Z,11.93
2022-10-04T00:21:01.329Z,14.80
2022-10-04T00:23:43.071Z,11.83
2022-10-04T00:26:59.366Z,13.50
2022-10-04T00:29:33.780Z,12.60
2022-10-04T00:32:28.055Z,14.60
2022-10-04T00:34:59.671Z,12.83
2022-10-04T00:37:48.188Z,14.73
2022-10-04T00:40:21.394Z,16.27
2022-10-04T00:42:58.720Z,12.93
2022-10-04T00:45:34.037Z,16.60
2022-10-04T00:48:31.667Z,16.80
2022-10-04T00:51:14.303Z,14.57
2022-10-04T00:54:04.317Z,14.43
2022-10-04T00:56:43.587Z,14.67
2022-10-04T00:59:35.167Z,12.87
2022-10-04T01:02:13.237Z,17.40
2022-10-04T01:04:48.600Z,14.13
2022-10-04T01:07:28.729Z,17.60
2022-10-04T01:10:05.836Z,14.67
2022-10-04T01:12:49.387Z,17.53
2022-10-04T01:15:31.868Z,16.20
2022-10-04T01:18:12.869Z,18.17
2022-10-04T01:20:54.419Z,16.43
2022-10-04T01:23:44.296Z,15.90
2022-10-04T01:26:43.273Z,14.73
2022-10-04T01:29:16.694Z,15.00
2022-10-04T01:31:47.751Z,16.37
2022-10-04T01:34:18.648Z,16.17
2022-10-04T01:36:49.214Z,18.03
2022-10-04T01:39:21.824Z,13.87
2022-10-04T01:42:01.000Z,15.30
2022-10-04T01:44:38.548Z,14.97
2022-10-04T01:47:16.398Z,16.73
2022-10-04T01:49:47.330Z,16.80
2022-10-04T01:52:22.497Z,18.70
2022-10-04T01:55:03.246Z,15.32
2022-10-04T01:57:38.672Z,15.73
2022-10-04T02:00:10.337Z,14.20
2022-10-04T02:02:51.397Z,17.43
2022-10-04T02:05:30.589Z,14.53
2022-10-04T02:08:08.054Z,16.27
2022-10-04T02:10:43.413Z,16.23
2022-10-04T02:13:20.679Z,14.80
2022-10-04T02:15:50.403Z,14.53
2022-10-04T02:18:22.264Z,17.23
2022-10-04T02:20:55.138Z,15.47
2022-10-04T02:23:25.144Z,17.53
2022-10-04T02:25:56.148Z,18.90
2022-10-04T02:28:24.147Z,16.53
2022-10-04T02:31:12.511Z,14.83
2022-10-04T02:33:43.319Z,15.27
2022-10-04T02:36:13.197Z,16.53
2022-10-04T02:38:51.401Z,17.80
2022-10-04T02:41:29.646Z,22.10
2022-10-04T02:44:11.942Z,14.37
2022-10-04T02:46:51.283Z,19.77
2022-10-04T02:49:29.888Z,18.60
2022-10-04T02:52:07.482Z,17.57
2022-10-04T02:54:42.907Z,15.83
2022-10-04T02:57:19.537Z,17.65
2022-10-04T02:59:49.094Z,20.30
2022-10-04T03:02:29.907Z,19.27
2022-10-04T03:05:07.133Z,19.37
2022-10-04T03:07:38.127Z,16.70
2022-10-04T03:10:12.380Z,16.00
2022-10-04T03:12:46.904Z,17.17
2022-10-04T03:15:15.276Z,17.77
2022-10-04T03:17:44.645Z,18.40
2022-10-04T03:20:21.005Z,18.77
2022-10-04T03:22:55.578Z,16.77
2022-10-04T03:25:34.200Z,19.53
2022-10-04T03:28:05.152Z,18.03
2022-10-04T03:30:36.183Z,20.47
2022-10-04T03:33:06.204Z,19.20
2022-10-04T03:35:39.079Z,24.73
2022-10-04T03:38:12.387Z,23.83
2022-10-04T03:40:51.461Z,22.87
2022-10-04T03:43:26.581Z,22.20
2022-10-04T03:45:56.685Z,23.80
2022-10-04T03:48:34.135Z,22.00
2022-10-04T03:51:06.642Z,22.17
2022-10-04T03:53:43.464Z,23.33
2022-10-04T03:56:17.264Z,21.77
2022-10-04T03:58:49.931Z,22.07
2022-10-04T04:01:36.608Z,21.90
2022-10-04T04:04:18.066Z,25.97
2022-10-04T04:06:57.470Z,24.83
2022-10-04T04:09:41.164Z,22.77
2022-10-04T04:12:17.885Z,23.03
2022-10-04T04:14:52.019Z,23.40
2022-10-04T04:17:41.702Z,23.83
2022-10-04T04:20:33.851Z,24.73
2022-10-04T04:23:11.743Z,20.97
2022-10-04T04:25:44.375Z,22.93
2022-10-04T04:28:26.992Z,24.13
2022-10-04T04:31:04.505Z,26.40
2022-10-04T04:33:43.096Z,21.50
2022-10-04T04:36:14.833Z,25.13
2022-10-04T04:39:02.387Z,24.00
2022-10-04T04:41:37.396Z,22.43
2022-10-04T04:44:17.926Z,18.05
2022-10-04T04:46:47.899Z,22.63
2022-10-04T04:49:18.659Z,21.93
2022-10-04T04:51:51.743Z,23.90
2022-10-04T04:54:25.699Z,23.50
2022-10-04T04:56:59.419Z,21.50
2022-10-04T04:59:28.111Z,20.90
2022-10-04T05:01:57.550Z,24.80
2022-10-04T05:04:26.615Z,21.13
2022-10-04T05:07:06.220Z,25.20
2022-10-04T05:09:38.349Z,20.83
2022-10-04T05:12:16.419Z,21.43
2022-10-04T05:14:48.984Z,21.07
2022-10-04T05:17:23.937Z,17.33
2022-10-04T05:19:57.970Z,21.45
2022-10-04T05:22:28.447Z,17.97
2022-10-04T05:25:02.910Z,26.00
2022-10-04T05:27:37.792Z,24.77
2022-10-04T05:30:16.600Z,18.10
2022-10-04T05:32:59.851Z,19.93
2022-10-04T05:35:38.645Z,22.03
2022-10-04T05:38:16.811Z,24.83
2022-10-04T05:40:57.700Z,20.73
2022-10-04T05:43:35.324Z,22.23
2022-10-04T05:46:28.069Z,18.43
2022-10-04T05:49:05.174Z,25.77
2022-10-04T05:51:47.899Z,25.20
2022-10-04T05:54:22.577Z,26.57
2022-10-04T05:57:32.886Z,24.13
2022-10-04T06:00:13.812Z,20.30
2022-10-04T06:03:28.799Z,21.83
2022-10-04T06:06:05.727Z,18.13
2022-10-04T06:08:55.372Z,21.70
2022-10-04T06:12:01.179Z,21.30
2022-10-04T06:14:58.363Z,20.90
2022-10-04T06:17:51.112Z,17.13
2022-10-04T06:20:55.161Z,22.93
2022-10-04T06:23:31.786Z,22.47
2022-10-04T06:26:09.661Z,22.77
2022-10-04T06:28:44.588Z,22.53
2022-10-04T06:32:10.805Z,17.15
2022-10-04T06:35:00.228Z,17.87
2022-10-04T06:38:02.435Z,18.97
2022-10-04T06:41:05.063Z,19.87
2022-10-04T06:44:12.549Z,22.07
2022-10-04T06:46:49.776Z,15.80
2022-10-04T06:49:44.007Z,14.73
2022-10-04T06:52:46.393Z,16.33
2022-10-04T06:55:37.942Z,11.93
2022-10-04T06:58:33.646Z,15.03
2022-10-04T07:01:11.434Z,16.02
2022-10-04T07:03:51.837Z,14.63
2022-10-04T07:06:27.968Z,16.27
2022-10-04T07:09:03.183Z,15.00
2022-10-04T07:11:46.231Z,15.03
2022-10-04T07:14:20.476Z,17.73
2022-10-04T07:16:57.551Z,13.23
2022-10-04T07:19:36.988Z,14.90
2022-10-04T07:22:20.550Z,13.97
2022-10-04T07:25:12.593Z,12.43
2022-10-04T07:28:11.222Z,11.80
2022-10-04T07:30:49.265Z,14.57
2022-10-04T07:33:24.764Z,12.27
2022-10-04T07:36:04.798Z,14.98
2022-10-04T07:38:43.935Z,10.10
2022-10-04T07:41:25.427Z,11.80
2022-10-04T07:44:02.076Z,11.83
2022-10-04T07:46:49.876Z,13.70
2022-10-04T07:49:22.131Z,13.45
2022-10-04T07:52:07.915Z,11.02
2022-10-04T07:54:47.279Z,12.15
2022-10-04T07:57:25.153Z,18.13
2022-10-04T08:00:06.589Z,14.63
2022-10-04T08:03:06.117Z,11.87
2022-10-04T08:05:39.102Z,12.73
2022-10-04T08:08:37.745Z,9.63
2022-10-04T08:11:24.728Z,12.20
2022-10-04T08:14:04.698Z,10.77
2022-10-04T08:16:38.192Z,10.43
2022-10-04T08:19:40.037Z,10.20
2022-10-04T08:22:23.713Z,8.93
2022-10-04T08:25:08.835Z,9.27
2022-10-04T08:28:18.386Z,8.70
2022-10-04T08:31:21.510Z,10.25
2022-10-04T08:34:07.340Z,9.52
2022-10-04T08:39:43.304Z,8.60
2022-10-04T08:42:56.194Z,7.03
2022-10-04T08:46:14.134Z,7.32
2022-10-04T08:49:13.314Z,9.00
2022-10-04T08:52:25.156Z,9.07
2022-10-04T08:55:49.075Z,8.23
2022-10-04T08:58:59.773Z,10.05
2022-10-04T09:02:02.413Z,10.13
2022-10-04T09:05:08.561Z,8.10
2022-10-04T09:08:28.131Z,11.07
2022-10-04T09:11:31.611Z,9.65
2022-10-04T09:14:27.802Z,8.50
2022-10-04T09:17:22.244Z,8.48
2022-10-04T09:20:26.304Z,9.10
2022-10-04T09:23:07.240Z,9.57
2022-10-04T09:25:58.685Z,11.27
2022-10-04T09:29:11.379Z,10.05
2022-10-04T09:32:26.499Z,9.55
2022-10-04T09:35:40.063Z,9.33
2022-10-04T09:39:28.451Z,8.45
2022-10-04T09:42:15.207Z,7.88
2022-10-04T09:45:20.260Z,9.10
2022-10-04T09:48:14.513Z,8.57
2022-10-04T09:51:29.619Z,9.38
2022-10-04T09:54:51.096Z,8.90
2022-10-04T09:57:33.502Z,7.72
2022-10-04T10:00:23.497Z,5.65
2022-10-04T10:03:30.451Z,5.80
2022-10-04T10:06:46.595Z,6.57
2022-10-04T10:10:02.542Z,7.05
2022-10-04T10:13:16.066Z,7.32
2022-10-04T10:16:01.331Z,7.72
2022-10-04T10:18:48.494Z,7.95
2022-10-04T10:21:38.337Z,8.90
2022-10-04T10:25:03.632Z,7.75
2022-10-04T10:27:54.212Z,5.10
2022-10-04T10:30:31.137Z,7.75
2022-10-04T10:33:41.006Z,8.02
2022-10-04T10:36:44.303Z,6.28
2022-10-04T10:39:54.372Z,8.15
2022-10-04T10:42:55.464Z,5.93
2022-10-04T10:45:45.782Z,7.05
2022-10-04T10:48:22.685Z,7.00
2022-10-04T10:51:03.562Z,6.30
2022-10-04T10:54:38.728Z,8.40
2022-10-04T10:57:34.059Z,8.07
2022-10-04T11:00:20.438Z,6.22
2022-10-04T11:03:36.419Z,9.02
2022-10-04T11:07:18.082Z,6.60
2022-10-04T11:10:33.219Z,6.55
2022-10-04T11:13:37.312Z,7.07
2022-10-04T11:17:03.905Z,10.88
2022-10-04T11:20:35.049Z,10.60
2022-10-04T11:23:43.067Z,7.95
2022-10-04T11:26:56.945Z,6.53
2022-10-04T11:29:48.749Z,7.03
2022-10-04T11:33:02.647Z,6.82
2022-10-04T11:36:12.671Z,7.18
2022-10-04T11:39:02.503Z,9.30
2022-10-04T11:41:51.194Z,7.18
2022-10-04T11:45:06.395Z,9.57
2022-10-04T11:48:01.271Z,8.05
2022-10-04T11:50:49.097Z,7.83
2022-10-04T11:54:03.452Z,8.95
2022-10-04T11:57:01.554Z,5.97
2022-10-04T11:59:47.586Z,6.20
2022-10-04T12:02:46.267Z,6.97
2022-10-04T12:06:03.894Z,6.00
2022-10-04T12:08:56.914Z,9.45
2022-10-04T12:12:37.568Z,6.80
2022-10-04T12:15:44.969Z,8.05
2022-10-04T12:18:57.544Z,7.82
2022-10-04T12:21:50.615Z,8.90
2022-10-04T12:25:09.650Z,7.68
2022-10-04T12:28:24.415Z,7.72
2022-10-04T12:31:20.062Z,8.77
2022-10-04T12:34:02.801Z,8.27
2022-10-04T12:37:02.655Z,8.50
2022-10-04T12:39:58.019Z,6.88
2022-10-04T12:42:45.487Z,7.63
2022-10-04T12:45:38.082Z,9.88
2022-10-04T12:48:26.988Z,6.28
2022-10-04T12:51:18.173Z,9.35
2022-10-04T12:54:01.163Z,5.90
2022-10-04T12:56:46.387Z,6.82
2022-10-04T12:59:43.415Z,6.72
2022-10-04T13:02:36.634Z,5.60
2022-10-04T13:05:19.361Z,6.53
2022-10-04T13:08:22.254Z,7.55
2022-10-04T13:11:22.359Z,7.68
2022-10-04T13:14:28.046Z,7.95
2022-10-04T13:17:34.592Z,6.55
2022-10-04T13:20:35.740Z,4.85
2022-10-04T13:23:21.483Z,8.95
2022-10-04T13:26:20.846Z,7.25
2022-10-04T13:29:02.757Z,5.72
2022-10-04T13:31:37.918Z,6.72
2022-10-04T13:34:25.662Z,6.93
2022-10-04T13:37:21.894Z,4.80
2022-10-04T13:40:25.153Z,6.75
2022-10-04T13:43:31.148Z,6.43
2022-10-04T13:46:16.306Z,4.55
2022-10-04T13:49:07.299Z,6.68
2022-10-04T13:52:31.597Z,6.75
2022-10-04T13:55:44.089Z,5.32
2022-10-04T13:58:32.352Z,5.68
2022-10-04T14:01:34.050Z,5.05
2022-10-04T14:04:29.093Z,5.95
2022-10-04T14:07:45.372Z,6.78
2022-10-04T14:10:44.507Z,5.60
2022-10-04T14:13:52.269Z,7.10
2022-10-04T14:17:03.233Z,5.00
2022-10-04T14:20:18.527Z,5.53
2022-10-04T14:23:23.243Z,5.93
2022-10-04T14:26:23.044Z,5.32
2022-10-04T14:29:56.215Z,5.43
2022-10-04T14:33:08.652Z,5.60
2022-10-04T14:35:50.968Z,6.00
2022-10-04T14:39:01.112Z,6.40
2022-10-04T14:42:23.063Z,5.65
2022-10-04T14:45:28.055Z,5.40
2022-10-04T14:48:42.608Z,6.63
2022-10-04T14:51:44.610Z,5.32
2022-10-04T14:54:29.546Z,5.32
2022-10-04T14:57:09.582Z,6.38
2022-10-04T15:00:14.733Z,4.22
2022-10-04T15:03:29.752Z,5.55
2022-10-04T15:06:19.511Z,5.32
2022-10-04T15:09:42.013Z,4.65
2022-10-04T15:13:10.042Z,5.35
2022-10-04T15:15:55.040Z,4.32
2022-10-04T15:18:52.582Z,5.13
2022-10-04T15:21:54.108Z,8.50
2022-10-04T15:24:28.614Z,4.78
2022-10-04T15:27:41.462Z,4.82
2022-10-04T15:30:24.823Z,6.07
2022-10-04T15:33:17.851Z,5.65
2022-10-04T15:36:11.080Z,5.65
2022-10-04T15:38:54.158Z,6.40
2022-10-04T15:41:33.343Z,4.85
2022-10-04T15:44:58.313Z,6.22
2022-10-04T15:47:38.057Z,6.43
2022-10-04T15:50:26.071Z,7.93
2022-10-04T15:53:25.352Z,8.10
2022-10-04T15:56:21.932Z,6.93
2022-10-04T15:59:42.618Z,8.32
2022-10-04T16:02:47.393Z,8.48
2022-10-04T16:05:26.941Z,6.65
2022-10-04T16:08:13.810Z,7.90
2022-10-04T16:11:11.410Z,6.30
2022-10-04T16:14:01.326Z,7.88
2022-10-04T16:16:59.847Z,10.52
2022-10-04T16:19:53.418Z,7.15
2022-10-04T16:22:29.320Z,7.43
2022-10-04T16:25:00.019Z,7.57
2022-10-04T16:27:49.447Z,7.88
2022-10-04T16:30:28.676Z,5.68
2022-10-04T16:33:13.730Z,7.95
2022-10-04T16:35:52.321Z,7.00
2022-10-04T16:38:28.658Z,6.30
2022-10-04T16:41:09.740Z,5.22
2022-10-04T16:43:51.560Z,8.43
2022-10-04T16:46:31.231Z,7.70
2022-10-04T16:49:17.756Z,5.05
2022-10-04T16:52:09.165Z,6.93
2022-10-04T16:55:17.712Z,8.13
2022-10-04T16:58:42.021Z,6.22
2022-10-04T17:02:03.342Z,7.00
2022-10-04T17:05:22.518Z,6.25
2022-10-04T17:08:20.659Z,8.13
2022-10-04T17:11:28.872Z,9.05
2022-10-04T17:14:06.433Z,6.75
2022-10-04T17:16:40.552Z,6.40
2022-10-04T17:19:29.049Z,8.55
2022-10-04T17:22:15.947Z,6.90
2022-10-04T17:25:04.141Z,6.40
2022-10-04T17:27:49.272Z,8.27
2022-10-04T17:30:22.089Z,9.68
2022-10-04T17:33:24.074Z,9.07
2022-10-04T17:36:14.163Z,8.40
2022-10-04T17:38:54.010Z,10.60
2022-10-04T17:41:41.315Z,7.22
2022-10-04T17:44:36.061Z,8.20
2022-10-04T17:47:14.791Z,11.75
2022-10-04T17:50:18.183Z,7.45
2022-10-04T17:53:14.122Z,8.10
2022-10-04T17:55:49.573Z,8.50
2022-10-04T18:01:05.925Z,7.83
2022-10-04T18:03:40.436Z,9.60
2022-10-04T18:06:27.877Z,9.77
2022-10-04T18:09:02.220Z,10.43
2022-10-04T18:11:43.684Z,9.73
2022-10-04T18:14:42.968Z,11.57
2022-10-04T18:17:31.359Z,11.40
2022-10-04T18:20:27.205Z,11.00
2022-10-04T18:23:00.775Z,11.60
2022-10-04T18:25:32.068Z,11.03
2022-10-04T18:28:13.950Z,9.70
2022-10-04T18:31:00.747Z,9.07
2022-10-04T18:33:49.972Z,10.20
2022-10-04T18:36:23.624Z,10.43
2022-10-04T18:39:18.538Z,9.40
2022-10-04T18:42:00.253Z,10.37
2022-10-04T18:44:44.422Z,10.03
2022-10-04T18:47:29.697Z,13.07
2022-10-04T18:50:07.096Z,9.83
2022-10-04T18:52:51.273Z,33.50
2022-10-04T18:55:37.522Z,81.53
2022-10-04T18:58:47.170Z,81.90
2022-10-04T19:02:01.754Z,66.03
2022-10-04T19:04:59.636Z,39.43
2022-10-04T19:07:42.460Z,24.27
2022-10-04T19:10:24.393Z,19.53
2022-10-04T19:13:11.149Z,17.53
2022-10-04T19:16:02.783Z,16.27
2022-10-04T19:18:52.451Z,14.20
2022-10-04T19:21:38.214Z,11.47
2022-10-04T19:27:06.041Z,13.03
2022-10-04T19:29:55.176Z,13.27
2022-10-04T19:32:38.109Z,14.33
2022-10-04T19:35:28.915Z,10.63
2022-10-04T19:38:14.545Z,12.73
2022-10-04T19:40:50.821Z,17.52
2022-10-04T19:43:34.244Z,14.30
2022-10-04T19:46:18.389Z,11.90
2022-10-04T19:48:50.316Z,13.07
2022-10-04T19:51:34.075Z,16.60
2022-10-04T19:54:15.842Z,20.87
2022-10-04T19:56:48.928Z,24.50
2022-10-04T19:59:23.655Z,16.47
2022-10-04T20:01:52.931Z,20.00
2022-10-04T20:04:38.114Z,20.97
2022-10-04T20:07:19.261Z,21.02
2022-10-04T20:09:56.733Z,19.23
2022-10-04T20:12:36.012Z,14.60
2022-10-04T20:15:47.465Z,15.77
2022-10-04T20:19:14.685Z,13.70
2022-10-04T20:21:42.984Z,13.37
2022-10-04T20:24:17.647Z,16.57
2022-10-04T20:26:54.481Z,14.77
2022-10-04T20:30:04.717Z,12.03
2022-10-04T20:33:02.029Z,13.03
2022-10-04T20:36:00.942Z,10.35
2022-10-04T20:38:52.111Z,13.60
2022-10-04T20:42:20.241Z,12.87
2022-10-04T20:44:54.480Z,10.40
2022-10-04T20:47:37.132Z,17.10
2022-10-04T20:50:19.223Z,11.97
2022-10-04T20:52:51.129Z,10.93
2022-10-04T20:55:28.064Z,10.73
2022-10-04T20:58:01.270Z,14.17
2022-10-04T21:00:34.480Z,12.63
2022-10-04T21:03:24.030Z,13.93
2022-10-04T21:06:05.280Z,13.07
2022-10-04T21:08:33.712Z,17.53
2022-10-04T21:11:16.811Z,12.23
2022-10-04T21:14:00.011Z,17.65
2022-10-04T21:16:56.450Z,12.40
2022-10-04T21:19:47.921Z,13.60
2022-10-04T21:22:39.020Z,18.13
2022-10-04T21:25:31.185Z,14.77
2022-10-04T21:28:38.897Z,15.33
2022-10-04T21:31:08.118Z,15.27
2022-10-04T21:33:36.855Z,15.33
2022-10-04T21:36:06.255Z,15.30
2022-10-04T21:38:34.268Z,13.47
2022-10-04T21:41:02.501Z,15.83
2022-10-04T21:43:30.851Z,15.60
2022-10-04T21:45:58.919Z,15.53
2022-10-04T21:48:28.330Z,15.13
2022-10-04T21:50:56.220Z,15.03
2022-10-04T21:53:24.250Z,14.93
2022-10-04T21:55:52.374Z,15.60
2022-10-04T21:58:20.191Z,16.20
2022-10-04T22:00:48.196Z,16.00
2022-10-04T22:03:16.199Z,16.37
2022-10-04T22:05:45.674Z,17.13
2022-10-04T22:08:13.394Z,17.03
2022-10-04T22:10:41.259Z,17.47
2022-10-04T22:13:09.275Z,18.13
2022-10-04T22:15:37.072Z,16.80
2022-10-04T22:18:05.074Z,15.93
2022-10-04T22:20:33.393Z,18.23
2022-10-04T22:23:10.154Z,17.33
2022-10-04T22:25:40.395Z,14.57
2022-10-04T22:28:19.446Z,17.57
2022-10-04T22:30:49.416Z,16.20
2022-10-04T22:33:31.226Z,15.00
2022-10-04T22:36:12.359Z,15.60
2022-10-04T22:38:47.967Z,16.40
2022-10-04T22:43:48.928Z,14.73
2022-10-04T22:46:19.961Z,15.40
2022-10-04T22:48:49.391Z,15.10
2022-10-04T22:51:17.147Z,16.00
2022-10-04T22:53:48.304Z,13.77
2022-10-04T22:56:16.419Z,15.87
2022-10-04T22:58:44.901Z,16.30
2022-10-04T23:01:15.660Z,13.60
2022-10-04T23:03:46.766Z,16.30
2022-10-04T23:06:15.713Z,16.97
2022-10-04T23:08:45.940Z,14.30
2022-10-04T23:11:14.112Z,17.87
2022-10-04T23:13:41.967Z,17.10
2022-10-04T23:16:16.183Z,15.80
2022-10-04T23:18:44.102Z,14.30
2022-10-04T23:21:24.233Z,16.63
2022-10-04T23:23:53.919Z,16.90
2022-10-04T23:26:26.753Z,18.30
2022-10-04T23:28:54.540Z,18.60
2022-10-04T23:31:25.862Z,16.50
2022-10-04T23:33:57.016Z,15.83
2022-10-04T23:36:25.180Z,17.47
2022-10-04T23:39:00.615Z,19.70
2022-10-04T23:41:29.076Z,16.08
2022-10-04T23:43:56.882Z,20.87
2022-10-04T23:46:24.963Z,19.07
2022-10-04T23:48:52.817Z,17.73
2022-10-04T23:51:21.315Z,17.23
2022-10-04T23:53:50.896Z,15.33
2022-10-04T23:56:24.237Z,15.50
2022-10-04T23:58:57.981Z,16.73
